createdAt,value
2023-01-06T00:01:51.101Z,10.81
2023-01-06T00:04:20.082Z,10.82
2023-01-06T00:06:49.600Z,10.84
2023-01-06T00:09:19.326Z,10.85
2023-01-06T00:11:49.217Z,10.83
2023-01-06T00:14:17.841Z,10.85
2023-01-06T00:16:47.234Z,10.85
2023-01-06T00:19:17.144Z,10.87
2023-01-06T00:21:45.994Z,10.89
2023-01-06T00:24:15.869Z,10.91
2023-01-06T00:26:46.587Z,10.92
2023-01-06T00:29:16.787Z,10.92
2023-01-06T00:31:45.789Z,10.91
2023-01-06T00:34:17.207Z,10.93
2023-01-06T00:36:46.877Z,10.94
2023-01-06T00:39:16.460Z,10.96
2023-01-06T00:42:03.733Z,10.95
2023-01-06T00:44:33.812Z,10.97
2023-01-06T00:47:03.584Z,10.98
2023-01-06T00:49:32.656Z,10.97
2023-01-06T00:52:01.302Z,10.98
2023-01-06T00:54:30.825Z,10.95
2023-01-06T00:57:01.542Z,10.97
2023-01-06T00:59:31.189Z,10.96
2023-01-06T01:02:01.331Z,10.93
2023-01-06T01:04:32.204Z,10.90
2023-01-06T01:07:02.178Z,10.92
2023-01-06T01:09:33.744Z,10.89
2023-01-06T01:12:14.704Z,10.90
2023-01-06T01:14:48.062Z,10.85
2023-01-06T01:17:20.302Z,10.81
2023-01-06T01:19:52.476Z,10.80
2023-01-06T01:22:22.202Z,10.76
2023-01-06T01:24:51.611Z,10.78
2023-01-06T01:27:22.485Z,10.73
2023-01-06T01:29:53.220Z,10.73
2023-01-06T01:32:23.337Z,10.74
2023-01-06T01:34:53.846Z,10.74
2023-01-06T01:37:22.818Z,10.75
2023-01-06T01:39:53.776Z,10.67
2023-01-06T01:42:25.137Z,10.67
2023-01-06T01:45:08.158Z,10.65
2023-01-06T01:47:47.584Z,10.65
2023-01-06T01:50:29.513Z,10.63
2023-01-06T01:53:06.556Z,10.61
2023-01-06T01:55:39.193Z,10.58
2023-01-06T01:58:14.636Z,10.55
2023-01-06T02:00:46.165Z,10.54
2023-01-06T02:03:17.543Z,10.52
2023-01-06T02:05:52.870Z,10.51
2023-01-06T02:08:34.113Z,10.44
2023-01-06T02:11:04.954Z,10.44
2023-01-06T02:13:38.754Z,10.42
2023-01-06T02:16:21.664Z,10.42
2023-01-06T02:19:06.749Z,10.42
2023-01-06T02:22:13.327Z,10.42
2023-01-06T02:25:21.622Z,10.41
2023-01-06T02:28:42.166Z,10.39
2023-01-06T02:31:49.196Z,10.37
2023-01-06T02:34:40.341Z,10.36
2023-01-06T02:37:30.558Z,10.37
2023-01-06T02:40:24.783Z,10.36
2023-01-06T02:43:11.317Z,10.36
2023-01-06T02:45:53.656Z,10.35
2023-01-06T02:48:36.589Z,10.35
2023-01-06T02:51:18.052Z,10.36
2023-01-06T02:54:07.796Z,10.35
2023-01-06T02:56:48.341Z,10.34
2023-01-06T02:59:26.672Z,10.32
2023-01-06T03:01:58.674Z,10.30
2023-01-06T03:04:37.611Z,10.28
2023-01-06T03:07:08.391Z,10.26
2023-01-06T03:09:41.115Z,10.26
2023-01-06T03:12:21.666Z,10.25
2023-01-06T03:14:57.665Z,10.22
2023-01-06T03:17:28.449Z,10.20
2023-01-06T03:19:58.969Z,10.19
2023-01-06T03:22:29.230Z,10.18
2023-01-06T03:24:58.328Z,10.16
2023-01-06T03:27:29.414Z,10.14
2023-01-06T03:29:59.331Z,10.15
2023-01-06T03:32:42.140Z,10.15
2023-01-06T03:35:31.239Z,10.13
2023-01-06T03:38:17.053Z,10.09
2023-01-06T03:40:56.950Z,10.10
2023-01-06T03:43:38.056Z,10.09
2023-01-06T03:46:26.358Z,10.05
2023-01-06T03:49:05.896Z,10.05
2023-01-06T03:51:49.413Z,10.05
2023-01-06T03:54:35.880Z,10.05
2023-01-06T03:57:10.605Z,10.02
2023-01-06T03:59:46.974Z,9.98
2023-01-06T04:02:17.166Z,9.99
2023-01-06T04:04:46.732Z,10.00
2023-01-06T04:07:17.523Z,9.99
2023-01-06T04:09:47.426Z,10.00
2023-01-06T04:12:45.887Z,10.00
2023-01-06T04:15:18.788Z,10.00
2023-01-06T04:17:49.085Z,9.98
2023-01-06T04:20:22.102Z,10.00
2023-01-06T04:22:55.622Z,10.00
2023-01-06T04:25:24.627Z,9.99
2023-01-06T04:27:53.618Z,10.00
2023-01-06T04:30:23.198Z,9.99
2023-01-06T04:32:52.574Z,10.00
2023-01-06T04:35:21.049Z,9.99
2023-01-06T04:37:49.989Z,9.99
2023-01-06T04:40:21.897Z,9.99
2023-01-06T04:43:08.121Z,10.01
2023-01-06T04:45:38.151Z,9.99
2023-01-06T04:48:10.201Z,9.99
2023-01-06T04:50:39.214Z,9.96
2023-01-06T04:53:09.682Z,9.95
2023-01-06T04:55:42.464Z,9.95
2023-01-06T04:58:12.522Z,9.93
2023-01-06T05:00:43.035Z,9.92
2023-01-06T05:03:13.069Z,9.91
2023-01-06T05:05:43.962Z,9.89
2023-01-06T05:08:13.939Z,9.87
2023-01-06T05:10:45.812Z,9.87
2023-01-06T05:13:15.364Z,9.85
2023-01-06T05:15:43.852Z,9.84
2023-01-06T05:18:14.080Z,9.84
2023-01-06T05:20:43.937Z,9.83
2023-01-06T05:23:15.019Z,9.83
2023-01-06T05:25:46.311Z,9.84
2023-01-06T05:28:15.396Z,9.80
2023-01-06T05:30:45.465Z,9.79
2023-01-06T05:33:14.839Z,9.79
2023-01-06T05:35:44.498Z,9.80
2023-01-06T05:38:13.409Z,9.78
2023-01-06T05:40:45.396Z,9.74
2023-01-06T05:43:15.229Z,9.73
2023-01-06T05:45:44.660Z,9.74
2023-01-06T05:48:14.630Z,9.75
2023-01-06T05:50:44.145Z,9.74
2023-01-06T05:53:13.753Z,9.74
2023-01-06T05:55:45.646Z,9.74
2023-01-06T05:58:15.551Z,9.72
2023-01-06T06:00:45.505Z,9.74
2023-01-06T06:03:14.888Z,9.74
2023-01-06T06:05:44.778Z,9.71
2023-01-06T06:08:14.693Z,9.73
2023-01-06T06:10:45.127Z,9.71
2023-01-06T06:13:15.591Z,9.72
2023-01-06T06:15:46.176Z,9.72
2023-01-06T06:18:16.198Z,9.74
2023-01-06T06:20:45.703Z,9.72
2023-01-06T06:23:16.237Z,9.72
2023-01-06T06:25:47.663Z,9.72
2023-01-06T06:28:16.687Z,9.74
2023-01-06T06:30:45.061Z,9.74
2023-01-06T06:33:14.094Z,9.75
2023-01-06T06:35:44.013Z,9.76
2023-01-06T06:38:13.432Z,9.76
2023-01-06T06:40:47.460Z,9.73
2023-01-06T06:43:18.602Z,9.78
2023-01-06T06:45:48.970Z,9.78
2023-01-06T06:48:18.623Z,9.78
2023-01-06T06:50:48.136Z,9.77
2023-01-06T06:53:18.562Z,9.77
2023-01-06T06:55:49.387Z,9.75
2023-01-06T06:58:19.722Z,9.76
2023-01-06T07:00:49.254Z,9.74
2023-01-06T07:03:19.044Z,9.73
2023-01-06T07:05:50.987Z,9.68
2023-01-06T07:08:21.280Z,9.69
2023-01-06T07:10:53.097Z,9.68
2023-01-06T07:13:22.654Z,9.68
2023-01-06T07:15:52.384Z,9.65
2023-01-06T07:18:22.623Z,9.64
2023-01-06T07:20:54.218Z,9.66
2023-01-06T07:23:24.513Z,9.68
2023-01-06T07:25:58.115Z,9.71
2023-01-06T07:28:27.086Z,9.67
2023-01-06T07:30:57.182Z,9.67
2023-01-06T07:33:26.327Z,9.64
2023-01-06T07:35:58.285Z,9.66
2023-01-06T07:38:28.274Z,9.67
2023-01-06T07:41:03.854Z,9.67
2023-01-06T07:43:32.770Z,9.69
2023-01-06T07:46:03.475Z,9.68
2023-01-06T07:48:34.051Z,9.68
2023-01-06T07:51:04.030Z,9.69
2023-01-06T07:53:34.662Z,9.73
2023-01-06T07:56:04.670Z,9.73
2023-01-06T07:58:33.593Z,9.73
2023-01-06T08:01:08.406Z,9.76
2023-01-06T08:03:38.950Z,9.65
2023-01-06T08:06:10.788Z,9.70
2023-01-06T08:08:40.013Z,9.72
2023-01-06T08:11:14.412Z,9.75
2023-01-06T08:13:44.936Z,9.72
2023-01-06T08:16:15.362Z,9.67
2023-01-06T08:18:44.682Z,9.72
2023-01-06T08:21:14.489Z,9.73
2023-01-06T08:23:43.448Z,9.73
2023-01-06T08:26:18.317Z,9.71
2023-01-06T08:28:48.440Z,9.69
2023-01-06T08:31:21.468Z,9.72
2023-01-06T08:33:51.806Z,9.69
2023-01-06T08:36:26.616Z,9.69
2023-01-06T08:38:56.516Z,9.73
2023-01-06T08:41:27.428Z,9.76
2023-01-06T08:43:57.369Z,9.75
2023-01-06T08:46:28.143Z,9.78
2023-01-06T08:48:59.343Z,9.74
2023-01-06T08:51:29.302Z,9.72
2023-01-06T08:53:59.275Z,9.74
2023-01-06T08:56:32.528Z,9.76
2023-01-06T08:59:04.433Z,9.76
2023-01-06T09:01:36.993Z,9.79
2023-01-06T09:04:10.040Z,9.81
2023-01-06T09:06:40.633Z,9.82
2023-01-06T09:09:12.132Z,9.86
2023-01-06T09:11:45.804Z,9.85
2023-01-06T09:14:15.731Z,9.87
2023-01-06T09:16:45.318Z,9.88
2023-01-06T09:19:17.049Z,9.89
2023-01-06T09:21:46.501Z,9.87
2023-01-06T09:24:17.939Z,9.89
2023-01-06T09:26:49.475Z,9.87
2023-01-06T09:29:20.843Z,9.87
2023-01-06T09:31:49.849Z,9.92
2023-01-06T09:34:19.319Z,9.94
2023-01-06T09:36:49.343Z,9.97
2023-01-06T09:39:19.979Z,10.01
2023-01-06T09:42:25.025Z,10.00
2023-01-06T09:44:59.324Z,10.02
2023-01-06T09:47:35.681Z,10.03
2023-01-06T09:50:12.553Z,10.06
2023-01-06T09:52:48.635Z,10.05
2023-01-06T09:55:27.880Z,10.05
2023-01-06T09:58:07.703Z,10.10
2023-01-06T10:00:43.272Z,10.12
2023-01-06T10:03:17.952Z,10.15
2023-01-06T10:06:06.091Z,10.17
2023-01-06T10:08:49.622Z,10.20
2023-01-06T10:11:33.361Z,10.15
2023-01-06T10:14:18.635Z,10.13
2023-01-06T10:17:10.622Z,10.21
2023-01-06T10:20:04.006Z,10.22
2023-01-06T10:22:47.997Z,10.26
2023-01-06T10:25:21.956Z,10.24
2023-01-06T10:27:57.022Z,10.31
2023-01-06T10:30:40.252Z,10.34
2023-01-06T10:33:21.709Z,10.37
2023-01-06T10:35:52.779Z,10.39
2023-01-06T10:38:32.101Z,10.37
2023-01-06T10:41:33.037Z,10.40
2023-01-06T10:44:02.759Z,10.32
2023-01-06T10:46:37.739Z,10.33
2023-01-06T10:49:15.696Z,10.38
2023-01-06T10:51:52.233Z,10.39
2023-01-06T10:54:28.242Z,10.39
2023-01-06T10:57:05.022Z,10.44
2023-01-06T10:59:33.981Z,10.51
2023-01-06T11:02:05.381Z,10.52
2023-01-06T11:04:35.563Z,10.41
2023-01-06T11:07:11.183Z,10.44
2023-01-06T11:09:43.437Z,10.47
2023-01-06T11:12:20.525Z,10.53
2023-01-06T11:14:57.778Z,10.47
2023-01-06T11:17:29.868Z,10.41
2023-01-06T11:20:31.496Z,10.43
2023-01-06T11:23:21.655Z,10.45
2023-01-06T11:26:18.535Z,10.49
2023-01-06T11:28:50.889Z,10.49
2023-01-06T11:31:26.640Z,10.49
2023-01-06T11:34:01.513Z,10.50
2023-01-06T11:36:35.497Z,10.53
2023-01-06T11:39:18.523Z,10.54
2023-01-06T11:41:52.694Z,10.53
2023-01-06T11:44:33.209Z,10.54
2023-01-06T11:47:08.840Z,10.57
2023-01-06T11:49:45.571Z,10.48
2023-01-06T11:52:26.136Z,10.48
2023-01-06T11:55:04.961Z,10.49
2023-01-06T11:57:44.023Z,10.46
2023-01-06T12:00:37.344Z,10.49
2023-01-06T12:03:19.200Z,10.48
2023-01-06T12:05:58.707Z,10.46
2023-01-06T12:08:36.692Z,10.47
2023-01-06T12:11:14.661Z,10.48
2023-01-06T12:14:06.585Z,10.50
2023-01-06T12:16:42.217Z,10.52
2023-01-06T12:19:22.174Z,10.51
2023-01-06T12:21:54.259Z,10.45
2023-01-06T12:24:25.375Z,10.36
2023-01-06T12:26:56.807Z,10.40
2023-01-06T12:29:27.100Z,10.46
2023-01-06T12:32:12.276Z,10.43
2023-01-06T12:34:49.205Z,10.42
2023-01-06T12:37:27.373Z,10.44
2023-01-06T12:40:05.127Z,10.46
2023-01-06T12:42:43.593Z,10.40
2023-01-06T12:45:19.810Z,10.43
2023-01-06T12:47:55.338Z,10.45
2023-01-06T12:50:37.952Z,10.50
2023-01-06T12:53:21.294Z,10.55
2023-01-06T12:56:14.358Z,10.55
2023-01-06T12:58:58.642Z,10.51
2023-01-06T13:01:41.324Z,10.55
2023-01-06T13:04:54.235Z,10.45
2023-01-06T13:07:42.534Z,10.51
2023-01-06T13:10:29.435Z,10.53
2023-01-06T13:13:44.645Z,10.52
2023-01-06T13:16:27.510Z,10.49
2023-01-06T13:19:17.690Z,10.50
2023-01-06T13:21:50.060Z,10.55
2023-01-06T13:25:22.780Z,10.54
2023-01-06T13:28:11.657Z,10.54
2023-01-06T13:31:19.017Z,10.60
2023-01-06T13:34:33.289Z,10.59
2023-01-06T13:37:34.831Z,10.49
2023-01-06T13:40:11.886Z,10.46
2023-01-06T13:42:49.531Z,10.46
2023-01-06T13:45:28.898Z,10.50
2023-01-06T13:48:00.590Z,10.55
2023-01-06T13:50:30.997Z,10.56
2023-01-06T13:53:01.001Z,10.64
2023-01-06T13:55:36.121Z,10.64
2023-01-06T13:58:38.922Z,10.70
2023-01-06T14:01:13.402Z,10.67
2023-01-06T14:03:44.254Z,10.66
2023-01-06T14:06:35.118Z,10.65
2023-01-06T14:09:05.329Z,10.59
2023-01-06T14:11:38.531Z,10.61
2023-01-06T14:14:29.623Z,10.63
2023-01-06T14:17:00.670Z,10.64
2023-01-06T14:19:34.649Z,10.67
2023-01-06T14:22:19.344Z,10.67
2023-01-06T14:24:54.525Z,10.70
2023-01-06T14:28:15.471Z,10.72
2023-01-06T14:30:46.126Z,10.71
2023-01-06T14:33:36.581Z,10.65
2023-01-06T14:36:15.100Z,10.68
2023-01-06T14:38:49.827Z,10.68
2023-01-06T14:41:28.124Z,10.68
2023-01-06T14:44:03.551Z,10.68
2023-01-06T14:46:40.477Z,10.71
2023-01-06T14:49:21.914Z,10.70
2023-01-06T14:51:57.090Z,10.67
2023-01-06T14:54:33.591Z,10.68
2023-01-06T14:57:06.546Z,10.69
2023-01-06T14:59:36.221Z,10.66
2023-01-06T15:02:18.076Z,10.65
2023-01-06T15:04:58.736Z,10.65
2023-01-06T15:07:29.185Z,10.65
2023-01-06T15:10:22.542Z,10.63
2023-01-06T15:12:56.996Z,10.58
2023-01-06T15:15:29.862Z,10.55
2023-01-06T15:18:02.907Z,10.55
2023-01-06T15:20:41.099Z,10.58
2023-01-06T15:23:16.698Z,10.58
2023-01-06T15:25:49.879Z,10.52
2023-01-06T15:28:26.609Z,10.55
2023-01-06T15:30:56.299Z,10.56
2023-01-06T15:33:37.783Z,10.54
2023-01-06T15:36:10.671Z,10.51
2023-01-06T15:38:45.331Z,10.50
2023-01-06T15:41:28.893Z,10.48
2023-01-06T15:43:58.615Z,10.45
2023-01-06T15:46:38.876Z,10.45
2023-01-06T15:49:21.194Z,10.47
2023-01-06T15:51:59.584Z,10.48
2023-01-06T15:54:32.896Z,10.49
2023-01-06T15:57:15.690Z,10.45
2023-01-06T15:59:57.755Z,10.45
2023-01-06T16:02:32.245Z,10.41
2023-01-06T16:05:02.562Z,10.41
2023-01-06T16:07:40.778Z,10.41
2023-01-06T16:10:35.285Z,10.41
2023-01-06T16:13:27.837Z,10.43
2023-01-06T16:16:06.324Z,10.41
2023-01-06T16:18:40.399Z,10.43
2023-01-06T16:21:24.308Z,10.39
2023-01-06T16:23:58.157Z,10.38
2023-01-06T16:26:30.680Z,10.39
2023-01-06T16:29:02.251Z,10.40
2023-01-06T16:31:34.462Z,10.38
2023-01-06T16:34:26.813Z,10.36
2023-01-06T16:37:01.422Z,10.35
2023-01-06T16:39:32.825Z,10.36
2023-01-06T16:42:40.580Z,10.31
2023-01-06T16:45:19.202Z,10.32
2023-01-06T16:47:48.759Z,10.33
2023-01-06T16:50:23.378Z,10.34
2023-01-06T16:53:07.710Z,10.34
2023-01-06T16:55:41.667Z,10.35
2023-01-06T16:58:19.915Z,10.31
2023-01-06T17:00:52.621Z,10.33
2023-01-06T17:03:23.942Z,10.31
2023-01-06T17:05:54.337Z,10.32
2023-01-06T17:08:29.563Z,10.32
2023-01-06T17:11:04.693Z,10.32
2023-01-06T17:13:36.248Z,10.33
2023-01-06T17:16:17.388Z,10.32
2023-01-06T17:18:57.450Z,10.33
2023-01-06T17:21:33.977Z,10.34
2023-01-06T17:24:16.260Z,10.33
2023-01-06T17:26:53.075Z,10.34
2023-01-06T17:29:23.899Z,10.34
2023-01-06T17:31:58.390Z,10.34
2023-01-06T17:34:33.699Z,10.34
2023-01-06T17:37:12.313Z,10.35
2023-01-06T17:39:44.927Z,10.35
2023-01-06T17:42:32.533Z,10.33
2023-01-06T17:45:02.289Z,10.32
2023-01-06T17:47:40.962Z,10.32
2023-01-06T17:50:31.804Z,10.33
2023-01-06T17:53:44.184Z,10.32
2023-01-06T17:56:14.037Z,10.33
2023-01-06T17:58:47.065Z,10.32
2023-01-06T18:01:24.303Z,10.32
2023-01-06T18:03:59.827Z,10.33
2023-01-06T18:06:31.130Z,10.33
2023-01-06T18:09:12.606Z,10.35
2023-01-06T18:11:44.013Z,10.33
2023-01-06T18:14:31.499Z,10.34
2023-01-06T18:17:18.246Z,10.33
2023-01-06T18:19:47.375Z,10.33
2023-01-06T18:22:19.927Z,10.30
2023-01-06T18:24:52.018Z,10.28
2023-01-06T18:27:26.604Z,10.30
2023-01-06T18:30:02.882Z,10.32
2023-01-06T18:32:34.258Z,10.30
2023-01-06T18:35:16.212Z,10.28
2023-01-06T18:37:46.711Z,10.29
2023-01-06T18:40:21.141Z,10.29
2023-01-06T18:42:51.218Z,10.29
2023-01-06T18:45:26.707Z,10.30
2023-01-06T18:48:01.291Z,10.30
2023-01-06T18:50:42.258Z,10.31
2023-01-06T18:53:24.754Z,10.31
2023-01-06T18:55:55.299Z,10.33
2023-01-06T18:58:46.406Z,10.32
2023-01-06T19:01:20.994Z,10.34
2023-01-06T19:04:03.970Z,10.29
2023-01-06T19:06:42.148Z,10.32
2023-01-06T19:09:22.762Z,10.34
2023-01-06T19:12:02.743Z,10.33
2023-01-06T19:14:37.421Z,10.33
2023-01-06T19:17:23.671Z,10.34
2023-01-06T19:19:56.179Z,10.33
2023-01-06T19:22:29.014Z,10.34
2023-01-06T19:25:05.547Z,10.33
2023-01-06T19:27:49.909Z,10.33
2023-01-06T19:30:45.196Z,10.35
2023-01-06T19:33:36.690Z,10.34
2023-01-06T19:36:43.760Z,10.32
2023-01-06T19:39:32.149Z,10.33
2023-01-06T19:42:15.353Z,10.35
2023-01-06T19:44:44.294Z,10.34
2023-01-06T19:47:20.661Z,10.34
2023-01-06T19:49:55.772Z,10.32
2023-01-06T19:52:35.179Z,10.33
2023-01-06T19:55:23.024Z,10.33
2023-01-06T19:57:55.041Z,10.34
2023-01-06T20:00:42.919Z,10.32
2023-01-06T20:03:29.418Z,10.31
2023-01-06T20:05:59.717Z,10.30
2023-01-06T20:08:30.361Z,10.31
2023-01-06T20:11:00.091Z,10.29
2023-01-06T20:13:29.277Z,10.30
2023-01-06T20:15:58.813Z,10.29
2023-01-06T20:18:28.279Z,10.32
2023-01-06T20:20:59.142Z,10.33
2023-01-06T20:23:28.691Z,10.28
2023-01-06T20:25:58.963Z,10.28
2023-01-06T20:28:28.683Z,10.29
2023-01-06T20:30:59.083Z,10.28
2023-01-06T20:33:28.147Z,10.28
2023-01-06T20:35:58.370Z,10.30
2023-01-06T20:38:26.839Z,10.31
2023-01-06T20:40:56.863Z,10.31
2023-01-06T20:43:26.936Z,10.32
2023-01-06T20:45:57.101Z,10.32
2023-01-06T20:48:27.335Z,10.31
2023-01-06T20:50:57.031Z,10.30
2023-01-06T20:53:28.235Z,10.31
2023-01-06T20:55:58.301Z,10.32
2023-01-06T20:58:28.132Z,10.30
2023-01-06T21:00:57.676Z,10.31
2023-01-06T21:03:26.779Z,10.30
2023-01-06T21:05:57.982Z,10.30
2023-01-06T21:08:29.592Z,10.29
2023-01-06T21:10:58.956Z,10.28
2023-01-06T21:13:29.823Z,10.27
2023-01-06T21:16:00.176Z,10.27
2023-01-06T21:18:30.371Z,10.27
2023-01-06T21:20:59.473Z,10.29
2023-01-06T21:23:30.904Z,10.27
2023-01-06T21:26:00.359Z,10.28
2023-01-06T21:28:29.965Z,10.28
2023-01-06T21:30:59.504Z,10.29
2023-01-06T21:33:29.455Z,10.27
2023-01-06T21:35:58.574Z,10.28
2023-01-06T21:38:28.923Z,10.28
2023-01-06T21:41:23.499Z,10.26
2023-01-06T21:43:51.555Z,10.27
2023-01-06T21:46:21.270Z,10.26
2023-01-06T21:48:50.208Z,10.27
2023-01-06T21:51:20.289Z,10.25
2023-01-06T21:53:50.310Z,10.25
2023-01-06T21:56:19.873Z,10.27
2023-01-06T21:58:49.372Z,10.25
2023-01-06T22:01:20.892Z,10.25
2023-01-06T22:03:50.991Z,10.26
2023-01-06T22:06:21.990Z,10.24
2023-01-06T22:08:54.981Z,10.25
2023-01-06T22:11:23.540Z,10.26
2023-01-06T22:13:54.553Z,10.25
2023-01-06T22:16:23.822Z,10.25
2023-01-06T22:18:55.124Z,10.24
2023-01-06T22:21:24.105Z,10.25
2023-01-06T22:23:58.540Z,10.24
2023-01-06T22:26:27.693Z,10.25
2023-01-06T22:28:57.006Z,10.24
2023-01-06T22:31:28.315Z,10.24
2023-01-06T22:33:57.404Z,10.24
2023-01-06T22:36:27.570Z,10.23
2023-01-06T22:38:58.615Z,10.22
2023-01-06T22:41:27.620Z,10.23
2023-01-06T22:43:57.063Z,10.22
2023-01-06T22:46:27.449Z,10.22
2023-01-06T22:48:56.454Z,10.20
2023-01-06T22:51:27.413Z,10.20
2023-01-06T22:53:58.333Z,10.20
2023-01-06T22:56:28.012Z,10.20
2023-01-06T22:58:57.469Z,10.18
2023-01-06T23:01:27.742Z,10.19
2023-01-06T23:03:57.763Z,10.19
2023-01-06T23:06:27.420Z,10.18
2023-01-06T23:09:00.520Z,10.18
2023-01-06T23:11:31.971Z,10.20
2023-01-06T23:14:00.916Z,10.17
2023-01-06T23:16:30.609Z,10.17
2023-01-06T23:19:00.146Z,10.15
2023-01-06T23:21:33.310Z,10.14
2023-01-06T23:24:06.165Z,10.15
2023-01-06T23:26:41.240Z,10.14
2023-01-06T23:29:10.312Z,10.14
2023-01-06T23:31:47.796Z,10.14
2023-01-06T23:34:19.156Z,10.14
2023-01-06T23:36:49.332Z,10.13
2023-01-06T23:39:21.572Z,10.13
2023-01-06T23:41:50.999Z,10.13
2023-01-06T23:44:22.105Z,10.13
2023-01-06T23:46:51.698Z,10.15
2023-01-06T23:49:22.063Z,10.13
2023-01-06T23:51:52.137Z,10.13
2023-01-06T23:54:24.302Z,10.11
2023-01-06T23:56:53.820Z,10.12
2023-01-06T23:59:24.202Z,10.12
